Latest Weather Observations for Naracoorte

IDS60801

Issued at 12:02 pm CDT Saturday 7 March 2015 (issued every 30 minutes, with the page automatically refreshed every 10 minutes)

About weather observations | Map of weather stations | Latest weather observations for SA | Other Formats
Station Details ID: 026099 Name: NARACOORTE AERODROME Lat: -36.98 Lon: 140.73 Height: 49.72 m
Data from the previous 72 hours. | See also: Recent months at Naracoorte
Date/Time
CDT
Temp
°C
App
Temp
°C
Dew
Point
Rel
Hum
%
Delta-T
°C
Wind Press
QNH
hPa
Press
MSL
hPa
Rain
since 9 am
mm
Dir
 
Spd
km/h
Gust
km/h
Spd
kts
Gust
kts
07/12:00pm 19.6 16.8 13.3 67 3.6 W 20 30 11 16 1013.6 1013.5 0.0
07/11:30am 19.8 16.3 13.3 66 3.7 W 24 30 13 16 1013.9 1013.8 0.0
07/11:00am 17.4 14.1 14.1 81 1.9 W 24 30 13 16 1014.5 1014.4 0.0
07/10:30am 17.2 14.4 14.3 83 1.7 WNW 22 28 12 15 1014.3 1014.2 0.0
07/10:00am 16.7 14.9 14.5 87 1.3 WNW 17 24 9 13 1014.2 1014.1 0.0
07/09:30am 16.4 14.5 15.1 92 0.8 WNW 19 24 10 13 1014.1 1014.0 0.0
07/09:00am 15.1 13.6 14.3 95 0.5 WNW 15 20 8 11 1014.1 1014.0 0.2
07/08:30am 14.8 12.9 14.2 96 0.3 WNW 17 20 9 11 1014.1 1014.0 0.2
07/08:00am 14.5 12.5 13.9 96 0.3 WNW 17 24 9 13 1013.9 1013.8 0.2
07/07:30am 14.2 12.9 13.6 96 0.3 WNW 13 15 7 8 1013.5 1013.4 0.2
07/07:00am 14.2 12.8 13.4 95 0.4 NW 13 17 7 9 1013.4 1013.3 0.2
07/06:30am 13.9 12.1 13.3 96 0.3 NW 15 19 8 10 1013.1 1013.0 0.2
07/06:00am 14.0 12.2 13.4 96 0.3 NW 15 19 8 10 1013.0 1012.9 0.2
07/05:30am 14.1 12.4 13.5 96 0.3 NW 15 19 8 10 1013.1 1013.0 0.2
07/05:00am 14.3 12.5 13.2 93 0.6 WNW 15 20 8 11 1013.0 1012.9 0.2
07/04:30am 14.4 13.3 13.1 92 0.7 WNW 11 15 6 8 1012.8 1012.7 0.2
07/04:00am 14.4 13.3 13.1 92 0.7 WNW 11 15 6 8 1012.6 1012.5 0.2
07/03:30am 14.5 12.7 13.2 92 0.7 W 15 19 8 10 1013.1 1013.0 0.2
07/03:00am 14.3 12.2 13.5 95 0.4 W 17 22 9 12 1013.5 1013.4 0.0
07/02:30am 14.2 12.5 13.6 96 0.3 W 15 17 8 9 1013.5 1013.4 0.0
07/02:00am 14.3 12.2 13.7 96 0.3 W 17 20 9 11 1014.1 1014.0 0.0
07/01:30am 14.4 12.8 13.8 96 0.3 W 15 19 8 10 1014.6 1014.5 0.0
07/01:00am 14.4 13.1 13.6 95 0.4 WNW 13 17 7 9 1014.5 1014.4 0.0
07/12:30am 14.4 12.7 13.6 95 0.4 W 15 19 8 10 1014.7 1014.6 0.0
07/12:00am 14.4 12.3 13.6 95 0.4 W 17 20 9 11 1014.8 1014.7 0.0
 
Date/Time
CDT
Temp
°C
App
Temp
°C
Dew
Point
Rel
Hum
%
Delta-T
°C
Wind Press
QNH
hPa
Press
MSL
hPa
Rain
since 9 am
mm
Dir
 
Spd
km/h
Gust
km/h
Spd
kts
Gust
kts
06/11:30pm 14.2 12.8 13.4 95 0.4 WNW 13 13 7 7 1014.9 1014.8 0.0
06/11:00pm 14.2 13.2 13.4 95 0.4 W 11 13 6 7 1014.8 1014.7 0.0
06/10:30pm 14.6 13.3 13.8 95 0.4 WSW 13 15 7 8 1015.0 1014.9 0.0
06/10:00pm 14.6 12.9 13.6 94 0.6 WSW 15 20 8 11 1015.1 1015.0 0.0
06/09:30pm 15.4 13.2 13.2 87 1.2 WSW 17 20 9 11 1015.1 1015.0 0.0
06/09:00pm 15.5 14.1 13.3 87 1.2 WSW 13 17 7 9 1015.0 1014.9 0.0
06/08:30pm 15.6 12.8 12.5 82 1.7 WSW 19 22 10 12 1014.9 1014.8 0.0
06/08:00pm 16.9 14.0 12.8 77 2.3 WSW 20 24 11 13 1014.8 1014.7 0.0
06/07:30pm 17.2 13.9 12.9 76 2.4 SW 22 26 12 14 1014.4 1014.3 0.0
06/07:00pm 17.5 13.9 13.2 76 2.4 WSW 24 32 13 17 1014.3 1014.2 0.0
06/06:30pm 17.7 12.9 12.8 73 2.7 SW 30 35 16 19 1014.3 1014.2 0.0
06/06:00pm 19.0 14.8 12.5 66 3.6 WSW 26 33 14 18 1014.1 1014.0 0.0
06/05:30pm 18.8 13.5 13.0 69 3.3 SW 33 43 18 23 1014.0 1013.9 0.0
06/05:00pm 20.0 16.1 12.0 60 4.5 WSW 24 35 13 19 1013.8 1013.7 0.0
06/04:30pm 19.1 13.4 13.1 68 3.4 SW 35 43 19 23 1014.0 1013.9 0.0
06/04:00pm 19.3 13.5 12.8 66 3.7 SW 35 44 19 24 1014.3 1014.2 0.0
06/03:30pm 20.4 15.3 13.1 63 4.2 SW 32 39 17 21 1014.4 1014.3 0.0
06/03:00pm 21.7 18.3 13.6 60 4.7 SW 24 32 13 17 1014.4 1014.3 0.0
06/02:31pm 19.6 15.5 13.8 69 3.3 SW 28 48 15 26 1014.7 1014.6 0.0
06/02:30pm 20.7 16.6 13.9 65 3.9 SW 28 44 15 24 1014.7 1014.6 0.0
06/02:00pm 17.8 11.8 14.3 80 2.0 SW 39 48 21 26 1015.1 1015.0 0.0
06/01:53pm 18.7 14.3 12.9 69 3.3 SW 28 46 15 25 1015.0 1014.9 0.0
06/01:30pm 16.9 11.6 14.2 84 1.5 SW 35 50 19 27 1015.4 1015.3 0.0
06/01:24pm 18.2 13.8 12.9 71 3.0 SW 28 50 15 27 1015.2 1015.1 0.0
06/01:00pm 17.6 12.6 13.9 79 2.1 SW 33 41 18 22 1015.4 1015.3 0.0
06/12:30pm 19.1 13.9 13.3 69 3.3 SW 33 43 18 23 1015.5 1015.4 0.0
06/12:00pm 18.4 13.8 12.2 67 3.4 SSW 28 37 15 20 1015.8 1015.7 0.0
06/11:30am 17.9 13.2 12.1 69 3.2 SW 28 37 15 20 1016.1 1016.0 0.0
06/11:00am 18.2 12.6 11.5 65 3.7 SW 32 41 17 22 1016.1 1016.0 0.0
06/10:30am 18.2 12.9 11.3 64 3.8 SW 30 39 16 21 1015.9 1015.8 0.0
06/10:00am 18.0 12.2 10.9 63 3.8 SW 32 41 17 22 1015.9 1015.8 0.0
06/09:30am 17.4 11.5 10.3 63 3.8 SW 32 43 17 23 1015.7 1015.6 0.0
06/09:00am 16.7 11.1 10.1 65 3.5 WSW 30 37 16 20 1015.9 1015.8 0.0
06/08:30am 16.2 11.8 10.3 68 3.1 SW 24 32 13 17 1016.0 1015.9 0.0
06/08:00am 15.8 9.9 10.3 70 2.9 SW 32 37 17 20 1015.9 1015.8 0.0
06/07:30am 15.4 9.9 10.4 72 2.6 SW 30 39 16 21 1015.8 1015.7 0.0
06/07:00am 15.3 11.1 9.9 70 2.8 SW 22 28 12 15 1015.7 1015.6 0.0
06/06:30am 15.2 9.9 10.0 71 2.7 SW 28 39 15 21 1015.7 1015.6 0.0
06/06:00am 15.0 10.9 10.0 72 2.6 WSW 22 28 12 15 1015.5 1015.4 0.0
06/05:30am 14.9 11.1 9.9 72 2.6 WSW 20 26 11 14 1015.6 1015.5 0.0
06/05:00am 14.9 10.7 9.7 71 2.7 WSW 22 30 12 16 1015.6 1015.5 0.0
06/04:30am 14.7 10.5 9.9 73 2.5 WSW 22 30 12 16 1015.8 1015.7 0.0
06/04:00am 14.1 10.2 9.5 74 2.4 WSW 20 24 11 13 1015.9 1015.8 0.0
06/03:30am 14.0 10.1 9.4 74 2.4 WSW 20 26 11 14 1016.3 1016.2 0.0
06/03:00am 13.5 9.7 9.2 75 2.2 W 19 24 10 13 1016.5 1016.4 0.0
06/02:30am 12.6 8.8 9.1 79 1.8 W 19 22 10 12 1016.7 1016.6 0.0
06/02:00am 12.0 8.1 8.7 80 1.6 W 19 22 10 12 1017.3 1017.2 0.0
06/01:30am 12.3 8.1 8.2 76 2.0 W 20 24 11 13 1017.8 1017.7 0.0
06/01:00am 12.8 8.8 8.3 74 2.2 W 19 20 10 11 1018.0 1017.9 0.0
06/12:30am 12.4 8.4 8.1 75 2.1 W 19 22 10 12 1018.3 1018.2 0.0
06/12:00am 13.1 8.9 8.4 73 2.3 W 20 24 11 13 1018.7 1018.6 0.0
 
Date/Time
CDT
Temp
°C
App
Temp
°C
Dew
Point
Rel
Hum
%
Delta-T
°C
Wind Press
QNH
hPa
Press
MSL
hPa
Rain
since 9 am
mm
Dir
 
Spd
km/h
Gust
km/h
Spd
kts
Gust
kts
05/11:30pm 13.8 10.2 8.2 69 2.8 W 17 19 9 10 1019.1 1019.0 0.0
05/11:00pm 13.1 9.5 8.4 73 2.3 W 17 20 9 11 1019.3 1019.2 0.0
05/10:30pm 13.7 9.7 8.3 70 2.7 W 19 24 10 13 1019.4 1019.3 0.0
05/10:00pm 13.7 10.0 7.9 68 2.9 W 17 24 9 13 1019.6 1019.5 0.0
05/09:30pm 14.3 9.9 7.4 63 3.4 WSW 20 26 11 14 1019.7 1019.6 0.0
05/09:00pm 13.9 10.4 7.0 63 3.4 WSW 15 19 8 10 1019.8 1019.7 0.0
05/08:30pm 14.3 9.7 6.6 60 3.7 WSW 20 26 11 14 1019.5 1019.4 0.0
05/08:00pm 14.4 8.9 6.0 57 4.0 WSW 24 30 13 16 1019.5 1019.4 0.0
05/07:30pm 15.1 8.1 6.1 55 4.3 SW 32 37 17 20 1019.5 1019.4 0.0
05/07:00pm 15.3 8.0 5.5 52 4.7 SW 33 39 18 21 1019.6 1019.5 0.0
05/06:30pm 16.4 9.5 6.5 52 4.8 SW 32 39 17 21 1019.5 1019.4 0.0
05/06:00pm 17.0 9.7 5.3 46 5.6 SW 33 43 18 23 1019.4 1019.3 0.0
05/05:30pm 18.2 10.1 5.4 43 6.2 SW 37 48 20 26 1019.2 1019.1 0.0
05/05:00pm 18.7 10.5 4.5 39 6.8 SW 37 52 20 28 1019.2 1019.1 0.0
05/04:30pm 20.1 12.9 5.7 39 7.1 SW 33 46 18 25 1019.1 1019.0 0.0
05/04:00pm 20.3 13.8 4.8 36 7.6 SW 28 50 15 27 1019.0 1018.9 0.0
05/03:55pm 20.2 13.7 4.7 36 7.5 SW 28 50 15 27 1019.0 1018.9 0.0
05/03:30pm 19.6 13.2 5.3 39 7.0 SW 28 35 15 19 1019.2 1019.1 0.0
05/03:00pm 19.9 13.4 4.8 37 7.3 SW 28 41 15 22 1019.6 1019.5 0.0
05/02:30pm 20.3 14.0 3.5 33 8.0 SW 26 39 14 21 1019.7 1019.6 0.0
05/02:00pm 20.0 13.8 4.1 35 7.6 SW 26 37 14 20 1019.8 1019.7 0.0
05/01:30pm 19.7 14.0 5.0 38 7.1 SW 24 35 13 19 1020.1 1020.0 0.0
05/01:00pm 19.8 14.4 4.3 36 7.5 SSW 22 39 12 21 1020.6 1020.5 0.0
05/12:30pm 18.8 13.5 4.9 40 6.7 S 22 33 12 18 1021.2 1021.1 0.0
05/12:00pm 18.9 12.8 4.7 39 6.8 SSW 26 41 14 22 1021.3 1021.2 0.0
05/11:30am 18.0 11.4 4.2 40 6.5 S 28 43 15 23 1021.6 1021.5 0.0
05/11:00am 17.6 12.0 5.5 45 5.9 SSW 24 33 13 18 1021.6 1021.5 0.0
05/10:30am 16.1 9.6 6.3 52 4.8 SSW 30 35 16 19 1021.7 1021.6 0.0
05/10:00am 15.4 8.9 6.4 55 4.4 SSW 30 39 16 21 1021.6 1021.5 0.0
05/09:30am 14.8 9.5 6.9 59 3.9 SSW 24 35 13 19 1021.5 1021.4 0.0
05/09:00am 14.1 10.4 7.9 66 3.1 SW 17 22 9 12 1021.1 1021.0 2.0
05/08:30am 12.4 8.7 6.5 67 2.8 WSW 15 19 8 10 1020.5 1020.4 2.0
05/08:00am 10.8 7.3 7.1 78 1.8 WSW 15 19 8 10 1020.2 1020.1 2.0
05/07:30am 8.3 4.1 5.8 84 1.1 WSW 17 19 9 10 1020.0 1019.9 2.0
05/07:00am 7.6 3.2 4.9 83 1.2 SW 17 19 9 10 1019.7 1019.6 2.0
05/06:30am 7.0 3.3 4.7 85 1.0 SW 13 15 7 8 1019.0 1018.9 2.0
05/06:00am 7.6 3.2 4.9 83 1.2 SW 17 19 9 10 1018.7 1018.6 2.0
05/05:30am 9.0 5.2 5.6 79 1.5 S 15 19 8 10 1017.9 1017.8 2.0
05/05:00am 10.7 6.1 6.3 74 2.1 SSW 20 24 11 13 1018.2 1018.1 2.0
05/04:30am 11.7 6.4 7.0 73 2.2 SSW 24 32 13 17 1018.1 1018.0 2.0
05/04:00am 11.2 7.0 8.1 81 1.5 SSW 20 24 11 13 1017.9 1017.8 2.0
05/03:30am 11.9 5.8 8.2 78 1.8 SSW 30 37 16 20 1017.4 1017.3 2.0
05/03:00am 12.8 5.9 8.9 77 2.0 SSW 35 48 19 26 1016.7 1016.6 2.0
05/02:30am 12.8 6.9 9.1 78 1.9 SSW 30 37 16 20 1016.4 1016.3 2.0
05/02:00am 13.0 9.5 10.9 87 1.1 SW 20 26 11 14 1016.3 1016.2 2.0
05/01:30am 13.6 8.8 11.5 87 1.1 SW 28 33 15 18 1016.4 1016.3 2.0
05/01:00am 14.0 7.4 11.3 84 1.4 SW 37 54 20 29 1016.2 1016.1 2.0
05/12:57am 14.3 8.1 11.3 82 1.6 SW 35 50 19 27 1016.1 1016.0 2.0
05/12:30am 14.0 10.1 12.2 89 1.0 WSW 24 32 13 17 1015.7 1015.6 2.0
05/12:00am 14.4 10.7 12.8 90 0.9 SW 24 30 13 16 1015.5 1015.4 2.0
 
Date/Time
CDT
Temp
°C
App
Temp
°C
Dew
Point
Rel
Hum
%
Delta-T
°C
Wind Press
QNH
hPa
Press
MSL
hPa
Rain
since 9 am
mm
Dir
 
Spd
km/h
Gust
km/h
Spd
kts
Gust
kts
04/11:30pm 14.2 7.3 12.8 91 0.8 SW 41 54 22 29 1015.2 1015.1 2.0
04/11:19pm 14.8 8.9 13.7 93 0.6 WSW 37 50 20 27 1015.0 1014.9 1.8
04/11:00pm 15.6 11.6 14.1 91 0.9 WNW 28 33 15 18 1014.5 1014.4 0.0
04/10:30pm 15.4 12.1 13.9 91 0.8 WNW 24 32 13 17 1014.8 1014.7 0.0
04/10:00pm 15.2 12.2 13.6 90 0.9 WNW 22 28 12 15 1014.9 1014.8 0.0
04/09:30pm 15.4 11.7 13.9 91 0.8 WNW 26 35 14 19 1014.5 1014.4 0.0
04/09:00pm 15.8 11.7 13.8 88 1.1 WNW 28 33 15 18 1014.5 1014.4 0.0
04/08:30pm 15.6 10.6 14.0 90 0.9 WNW 33 43 18 23 1014.3 1014.2 0.0
04/08:00pm 17.4 13.2 12.5 73 2.7 WNW 26 32 14 17 1014.1 1014.0 0.0
04/07:30pm 17.6 12.1 12.3 71 2.9 W 33 43 18 23 1014.0 1013.9 0.0
04/07:00pm 18.1 12.1 12.1 68 3.3 W 35 44 19 24 1014.0 1013.9 0.0
04/06:30pm 19.1 13.1 10.9 59 4.5 W 33 44 18 24 1013.8 1013.7 0.0
04/06:00pm 19.6 13.3 10.9 57 4.7 W 35 43 19 23 1013.7 1013.6 0.0
04/05:30pm 20.2 13.8 10.6 54 5.2 W 35 48 19 26 1013.8 1013.7 0.0
04/05:00pm 20.7 14.0 11.1 54 5.3 WNW 37 48 20 26 1013.7 1013.6 0.0
04/04:30pm 20.3 14.0 11.2 56 5.0 WNW 35 43 19 23 1014.0 1013.9 0.0
04/04:00pm 20.1 14.1 12.1 60 4.5 W 35 46 19 25 1014.4 1014.3 0.0
04/03:30pm 19.9 13.2 10.9 56 4.9 W 37 44 20 24 1014.6 1014.5 0.0
04/03:00pm 20.5 14.1 10.6 53 5.4 W 35 43 19 23 1014.8 1014.7 0.0
04/02:30pm 20.3 13.9 10.7 54 5.2 W 35 48 19 26 1015.1 1015.0 0.0
04/02:00pm 20.2 14.3 10.6 54 5.2 WNW 32 43 17 23 1015.3 1015.2 0.0
04/01:30pm 20.1 15.4 10.5 54 5.2 WNW 26 33 14 18 1015.7 1015.6 0.0
04/01:00pm 19.6 14.9 10.6 56 4.9 W 26 33 14 18 1016.1 1016.0 0.0
04/12:30pm 18.5 13.1 10.8 61 4.2 W 30 37 16 20 1016.5 1016.4 0.0

Other Formats:

Comma delimited format used in spreadsheet applications
http://www.bom.gov.au/fwo/IDS60801/IDS60801.94820.axf

JavaScript Object Notation format (JSON) in row-major order
http://www.bom.gov.au/fwo/IDS60801/IDS60801.94820.json